createdAt,value
2019-05-29T00:01:43.827Z,1.50
2019-05-29T00:04:14.490Z,1.47
2019-05-29T00:06:44.308Z,1.30
2019-05-29T00:09:14.278Z,1.90
2019-05-29T00:11:44.098Z,1.80
2019-05-29T00:14:24.906Z,2.67
2019-05-29T00:16:46.859Z,2.30
2019-05-29T00:19:16.590Z,2.77
2019-05-29T00:21:46.820Z,2.37
2019-05-29T00:24:16.520Z,1.67
2019-05-29T00:26:46.273Z,2.90
2019-05-29T00:29:15.976Z,3.37
2019-05-29T00:31:45.741Z,4.10
2019-05-29T00:34:15.452Z,3.90
2019-05-29T00:36:45.149Z,3.77
2019-05-29T00:39:14.926Z,3.63
2019-05-29T00:41:44.600Z,3.87
2019-05-29T00:44:15.312Z,3.50
2019-05-29T00:46:45.146Z,3.13
2019-05-29T00:49:15.909Z,5.00
2019-05-29T00:51:45.646Z,5.20
2019-05-29T00:54:16.459Z,4.00
2019-05-29T00:56:48.217Z,3.87
2019-05-29T00:59:19.168Z,3.13
2019-05-29T01:01:48.980Z,2.50
2019-05-29T01:04:18.584Z,3.30
2019-05-29T01:06:48.441Z,3.50
2019-05-29T01:09:18.618Z,3.20
2019-05-29T01:11:48.574Z,3.37
2019-05-29T01:14:19.285Z,4.00
2019-05-29T01:16:49.070Z,4.10
2019-05-29T01:19:27.859Z,4.43
2019-05-29T01:21:57.793Z,4.83
2019-05-29T01:24:27.961Z,5.70
2019-05-29T01:26:57.657Z,6.63
2019-05-29T01:29:27.318Z,6.97
2019-05-29T01:31:56.946Z,6.63
2019-05-29T01:34:26.646Z,6.93
2019-05-29T01:36:56.461Z,7.40
2019-05-29T01:39:26.077Z,6.73
2019-05-29T01:41:55.790Z,7.57
2019-05-29T01:44:25.590Z,8.63
2019-05-29T01:46:55.382Z,8.87
2019-05-29T01:49:25.016Z,9.00
2019-05-29T01:51:54.700Z,9.37
2019-05-29T01:54:24.434Z,9.23
2019-05-29T01:56:54.237Z,8.70
2019-05-29T01:59:24.058Z,9.90
2019-05-29T02:02:01.790Z,9.40
2019-05-29T02:04:31.533Z,9.90
2019-05-29T02:07:01.203Z,8.90
2019-05-29T02:09:30.942Z,10.13
2019-05-29T02:12:00.621Z,10.97
2019-05-29T02:14:30.272Z,9.57
2019-05-29T02:16:59.832Z,9.97
2019-05-29T02:19:29.505Z,10.37
2019-05-29T02:21:59.231Z,10.77
2019-05-29T02:24:28.873Z,11.30
2019-05-29T02:26:58.528Z,10.40
2019-05-29T02:29:28.246Z,11.73
2019-05-29T02:31:58.059Z,11.87
2019-05-29T02:34:29.691Z,12.50
2019-05-29T02:36:59.232Z,12.43
2019-05-29T02:39:29.530Z,13.20
2019-05-29T02:41:59.272Z,14.07
2019-05-29T02:44:29.695Z,14.80
2019-05-29T02:46:59.471Z,13.53
2019-05-29T02:49:30.365Z,13.80
2019-05-29T02:52:00.353Z,13.43
2019-05-29T02:54:31.916Z,16.23
2019-05-29T02:57:01.273Z,15.33
2019-05-29T02:59:32.023Z,16.40
2019-05-29T03:02:02.020Z,17.83
2019-05-29T03:04:32.778Z,15.40
2019-05-29T03:07:02.934Z,17.27
2019-05-29T03:09:32.856Z,17.90
2019-05-29T03:12:02.448Z,15.30
2019-05-29T03:14:34.293Z,17.40
2019-05-29T03:17:03.562Z,16.73
2019-05-29T03:19:34.677Z,17.50
2019-05-29T03:22:04.752Z,18.33
2019-05-29T03:24:53.447Z,17.33
2019-05-29T03:27:23.198Z,16.30
2019-05-29T03:29:52.972Z,18.37
2019-05-29T03:32:22.678Z,19.37
2019-05-29T03:34:52.351Z,18.80
2019-05-29T03:37:22.082Z,19.80
2019-05-29T03:39:51.730Z,19.20
2019-05-29T03:42:21.392Z,20.77
2019-05-29T03:44:51.104Z,21.93
2019-05-29T03:47:20.832Z,21.47
2019-05-29T03:49:50.786Z,21.30
2019-05-29T03:52:20.483Z,22.40
2019-05-29T03:54:50.154Z,20.70
2019-05-29T03:57:19.835Z,20.77
2019-05-29T03:59:49.597Z,23.27
2019-05-29T04:02:19.348Z,20.50
2019-05-29T04:04:49.118Z,21.60
2019-05-29T04:07:18.777Z,22.30
2019-05-29T04:09:48.744Z,20.30
2019-05-29T04:12:19.281Z,21.23
2019-05-29T04:14:49.934Z,22.60
2019-05-29T04:17:22.743Z,21.87
2019-05-29T04:19:54.268Z,22.30
2019-05-29T04:22:28.217Z,19.10
2019-05-29T04:25:00.499Z,21.83
2019-05-29T04:27:34.297Z,19.93
2019-05-29T04:30:05.081Z,21.23
2019-05-29T04:32:36.366Z,19.20
2019-05-29T04:35:06.523Z,19.43
2019-05-29T04:37:36.961Z,19.33
2019-05-29T04:40:07.681Z,19.17
2019-05-29T04:42:39.677Z,19.10
2019-05-29T04:45:09.869Z,20.80
2019-05-29T04:47:39.941Z,19.70
2019-05-29T04:50:09.933Z,18.43
2019-05-29T04:52:40.188Z,20.70
2019-05-29T04:55:10.459Z,19.80
2019-05-29T04:57:40.123Z,20.17
2019-05-29T05:00:10.800Z,20.43
2019-05-29T05:02:40.553Z,17.70
2019-05-29T05:05:10.367Z,19.10
2019-05-29T05:07:40.195Z,19.37
2019-05-29T05:10:11.397Z,19.33
2019-05-29T05:12:41.960Z,17.80
2019-05-29T05:15:12.046Z,17.30
2019-05-29T05:17:41.774Z,18.90
2019-05-29T05:20:11.661Z,16.30
2019-05-29T05:22:41.330Z,17.13
2019-05-29T05:25:11.116Z,17.60
2019-05-29T05:27:40.992Z,16.97
2019-05-29T05:30:11.271Z,16.10
2019-05-29T05:32:41.316Z,16.20
2019-05-29T05:35:14.364Z,17.87
2019-05-29T05:37:43.317Z,16.63
2019-05-29T05:40:13.855Z,17.17
2019-05-29T05:42:44.385Z,15.33
2019-05-29T05:45:14.245Z,16.23
2019-05-29T05:47:56.445Z,14.63
2019-05-29T05:50:15.929Z,16.17
2019-05-29T05:52:45.729Z,15.67
2019-05-29T05:55:15.660Z,15.87
2019-05-29T05:57:45.440Z,14.13
2019-05-29T06:00:17.171Z,14.10
2019-05-29T06:02:47.027Z,15.40
2019-05-29T06:05:16.890Z,14.20
2019-05-29T06:07:47.590Z,13.60
2019-05-29T06:10:17.443Z,13.63
2019-05-29T06:12:47.252Z,13.67
2019-05-29T06:15:16.878Z,14.07
2019-05-29T06:18:04.502Z,12.37
2019-05-29T06:20:18.051Z,14.67
2019-05-29T06:22:50.455Z,14.33
2019-05-29T06:25:20.333Z,13.80
2019-05-29T06:27:50.364Z,13.43
2019-05-29T06:30:22.803Z,14.53
2019-05-29T06:32:52.845Z,13.17
2019-05-29T06:35:22.685Z,13.50
2019-05-29T06:37:52.617Z,12.87
2019-05-29T06:40:36.090Z,13.93
2019-05-29T06:43:07.227Z,13.87
2019-05-29T06:45:37.869Z,13.57
2019-05-29T06:48:09.759Z,14.10
2019-05-29T06:50:39.796Z,13.33
2019-05-29T06:53:09.622Z,12.23
2019-05-29T06:55:39.885Z,13.17
2019-05-29T06:58:09.733Z,13.83
2019-05-29T07:00:41.039Z,13.87
2019-05-29T07:03:10.909Z,12.13
2019-05-29T07:05:44.685Z,11.67
2019-05-29T07:08:19.145Z,13.20
2019-05-29T07:10:44.597Z,14.03
2019-05-29T07:13:14.496Z,13.07
2019-05-29T07:15:45.828Z,11.77
2019-05-29T07:18:15.690Z,11.67
2019-05-29T07:20:45.420Z,11.77
2019-05-29T07:23:15.079Z,11.40
2019-05-29T07:25:45.643Z,11.30
2019-05-29T07:28:15.746Z,12.40
2019-05-29T07:30:53.847Z,11.20
2019-05-29T07:33:16.827Z,12.10
2019-05-29T07:35:47.779Z,10.80
2019-05-29T07:38:17.801Z,12.50
2019-05-29T07:40:49.503Z,10.37
2019-05-29T07:43:19.078Z,10.20
2019-05-29T07:45:48.712Z,10.90
2019-05-29T07:48:18.501Z,10.00
2019-05-29T07:50:48.518Z,10.03
2019-05-29T07:53:18.563Z,9.93
2019-05-29T07:55:48.992Z,9.57
2019-05-29T07:58:18.939Z,10.40
2019-05-29T08:01:09.317Z,10.53
2019-05-29T08:03:20.241Z,10.50
2019-05-29T08:05:52.680Z,9.60
2019-05-29T08:08:21.336Z,9.70
2019-05-29T08:10:53.478Z,10.40
2019-05-29T08:13:23.242Z,10.23
2019-05-29T08:16:02.223Z,10.23
2019-05-29T08:18:24.326Z,9.10
2019-05-29T08:20:53.939Z,9.60
2019-05-29T08:23:23.552Z,9.60
2019-05-29T08:25:56.068Z,7.93
2019-05-29T08:28:25.746Z,7.93
2019-05-29T08:30:56.532Z,7.63
2019-05-29T08:33:26.607Z,6.70
2019-05-29T08:36:00.096Z,6.80
2019-05-29T08:38:27.709Z,6.90
2019-05-29T08:40:57.496Z,8.20
2019-05-29T08:43:27.273Z,6.97
2019-05-29T08:45:56.896Z,7.90
2019-05-29T08:48:26.646Z,9.30
2019-05-29T08:50:56.325Z,9.47
2019-05-29T08:53:26.141Z,9.43
2019-05-29T08:55:55.772Z,10.27
2019-05-29T08:58:25.460Z,8.27
2019-05-29T09:00:55.425Z,8.47
2019-05-29T09:03:27.962Z,8.47
2019-05-29T09:06:08.326Z,9.27
2019-05-29T09:08:28.907Z,7.73
2019-05-29T09:10:58.513Z,9.57
2019-05-29T09:13:29.422Z,7.90
2019-05-29T09:15:59.061Z,7.17
2019-05-29T09:18:28.754Z,6.57
2019-05-29T09:21:03.431Z,7.33
2019-05-29T09:23:29.836Z,6.97
2019-05-29T09:26:13.664Z,7.87
2019-05-29T09:28:29.067Z,8.23
2019-05-29T09:30:58.941Z,7.80
2019-05-29T09:33:28.679Z,8.27
2019-05-29T09:35:58.416Z,7.17
2019-05-29T09:38:28.111Z,7.50
2019-05-29T09:40:57.889Z,7.20
2019-05-29T09:43:30.598Z,7.40
2019-05-29T09:46:02.033Z,6.60
2019-05-29T09:48:30.358Z,7.43
2019-05-29T09:51:00.087Z,6.30
2019-05-29T09:53:29.823Z,7.80
2019-05-29T09:56:00.900Z,7.03
2019-05-29T09:58:30.751Z,6.83
2019-05-29T10:01:20.984Z,6.80
2019-05-29T10:03:31.785Z,6.60
2019-05-29T10:06:01.593Z,7.40
2019-05-29T10:08:31.296Z,6.80
2019-05-29T10:11:05.951Z,6.70
2019-05-29T10:13:32.411Z,6.40
2019-05-29T10:16:02.885Z,7.33
2019-05-29T10:18:33.096Z,5.90
2019-05-29T10:21:03.196Z,6.23
2019-05-29T10:23:32.977Z,6.53
2019-05-29T10:26:03.420Z,5.20
2019-05-29T10:28:50.471Z,5.47
2019-05-29T10:31:05.636Z,6.70
2019-05-29T10:33:35.382Z,5.97
2019-05-29T10:36:05.180Z,6.20
2019-05-29T10:38:34.800Z,6.73
2019-05-29T10:41:06.976Z,7.73
2019-05-29T10:43:36.208Z,7.03
2019-05-29T10:46:06.040Z,6.97
2019-05-29T10:48:35.778Z,6.50
2019-05-29T10:51:05.397Z,7.87
2019-05-29T10:53:35.052Z,7.80
2019-05-29T10:56:05.244Z,7.10
2019-05-29T10:58:47.841Z,6.90
2019-05-29T11:01:06.527Z,6.87
2019-05-29T11:03:36.391Z,6.80
2019-05-29T11:06:06.139Z,6.93
2019-05-29T11:08:36.135Z,7.73
2019-05-29T11:11:06.192Z,7.90
2019-05-29T11:13:35.970Z,8.20
2019-05-29T11:16:05.776Z,7.70
2019-05-29T11:18:35.496Z,7.77
2019-05-29T11:21:05.378Z,8.23
2019-05-29T11:23:35.180Z,7.60
2019-05-29T11:26:05.230Z,7.70
2019-05-29T11:28:35.096Z,7.00
2019-05-29T11:31:06.215Z,9.30
2019-05-29T11:33:36.080Z,6.87
2019-05-29T11:36:10.647Z,6.13
2019-05-29T11:38:38.373Z,6.87
2019-05-29T11:41:25.159Z,7.03
2019-05-29T11:43:39.433Z,6.87
2019-05-29T11:46:09.350Z,6.40
2019-05-29T11:48:39.000Z,6.90
2019-05-29T11:51:08.717Z,7.07
2019-05-29T11:53:38.453Z,6.53
2019-05-29T11:56:09.797Z,6.20
2019-05-29T11:58:39.544Z,6.03
2019-05-29T12:01:09.225Z,5.60
2019-05-29T12:04:04.143Z,6.37
2019-05-29T12:06:10.363Z,5.90
2019-05-29T12:08:40.038Z,4.57
2019-05-29T12:11:09.642Z,5.60
2019-05-29T12:13:39.375Z,3.87
2019-05-29T12:16:09.194Z,4.50
2019-05-29T12:18:42.813Z,3.90
2019-05-29T12:21:12.545Z,2.27
2019-05-29T12:23:43.428Z,3.20
2019-05-29T12:26:22.282Z,3.00
2019-05-29T12:28:44.735Z,3.23
2019-05-29T12:31:14.523Z,3.47
2019-05-29T12:33:44.350Z,2.47
2019-05-29T12:36:14.080Z,3.33
2019-05-29T12:38:43.932Z,2.53
2019-05-29T12:41:13.645Z,2.93
2019-05-29T12:43:43.625Z,3.23
2019-05-29T12:46:13.527Z,2.80
2019-05-29T12:48:43.640Z,2.87
2019-05-29T12:51:13.329Z,2.87
2019-05-29T12:53:43.418Z,3.20
2019-05-29T12:56:13.038Z,3.33
2019-05-29T12:58:42.865Z,3.43
2019-05-29T13:01:12.589Z,4.20
2019-05-29T13:03:45.666Z,3.03
2019-05-29T13:06:13.904Z,3.37
2019-05-29T13:08:43.651Z,3.20
2019-05-29T13:11:13.281Z,3.57
2019-05-29T13:13:43.079Z,3.20
2019-05-29T13:16:12.716Z,3.17
2019-05-29T13:18:42.586Z,3.80
2019-05-29T13:21:12.204Z,3.20
2019-05-29T13:23:45.066Z,4.17
2019-05-29T13:26:13.049Z,3.23
2019-05-29T13:28:42.700Z,3.90
2019-05-29T13:31:12.278Z,4.30
2019-05-29T13:33:41.943Z,3.50
2019-05-29T13:36:11.606Z,4.80
2019-05-29T13:38:47.385Z,3.90
2019-05-29T13:41:17.100Z,4.33
2019-05-29T13:43:46.763Z,3.93
2019-05-29T13:46:16.338Z,4.50
2019-05-29T13:48:45.894Z,4.30
2019-05-29T13:51:15.450Z,4.03
2019-05-29T13:54:01.708Z,4.30
2019-05-29T13:56:16.487Z,4.27
2019-05-29T13:58:46.081Z,4.10
2019-05-29T14:01:15.673Z,4.07
2019-05-29T14:03:49.753Z,4.00
2019-05-29T14:06:17.106Z,4.23
2019-05-29T14:08:46.838Z,4.87
2019-05-29T14:11:16.456Z,3.83
2019-05-29T14:13:46.061Z,4.00
2019-05-29T14:16:15.674Z,4.27
2019-05-29T14:18:45.696Z,4.50
2019-05-29T14:21:15.583Z,4.20
2019-05-29T14:23:45.293Z,4.03
2019-05-29T14:26:15.255Z,3.43
2019-05-29T14:28:45.193Z,3.50
2019-05-29T14:31:15.879Z,3.03
2019-05-29T14:33:46.626Z,2.60
2019-05-29T14:36:16.285Z,2.10
2019-05-29T14:38:46.256Z,2.27
2019-05-29T14:41:16.067Z,2.13
2019-05-29T14:43:46.505Z,2.13
2019-05-29T14:46:16.595Z,1.90
2019-05-29T14:48:46.729Z,2.10
2019-05-29T14:51:16.711Z,1.57
2019-05-29T14:53:46.758Z,1.40
2019-05-29T14:56:16.823Z,1.40
2019-05-29T14:58:51.618Z,1.30
2019-05-29T15:01:24.253Z,1.70
2019-05-29T15:03:57.436Z,1.53
2019-05-29T15:06:27.204Z,1.47
2019-05-29T15:08:56.901Z,1.37
2019-05-29T15:11:26.662Z,1.37
2019-05-29T15:13:56.358Z,1.67
2019-05-29T15:16:26.381Z,1.40
2019-05-29T15:18:56.312Z,1.30
2019-05-29T15:21:32.612Z,1.60
2019-05-29T15:24:02.404Z,1.60
2019-05-29T15:26:32.133Z,1.13
2019-05-29T15:29:01.938Z,1.27
2019-05-29T15:31:31.894Z,1.43
2019-05-29T15:34:01.689Z,1.47
2019-05-29T15:36:31.388Z,1.53
2019-05-29T15:39:42.522Z,2.10
2019-05-29T15:42:20.000Z,1.30
2019-05-29T15:44:49.557Z,1.23
2019-05-29T15:47:19.218Z,1.30
2019-05-29T15:49:48.854Z,1.40
2019-05-29T15:52:18.522Z,1.30
2019-05-29T15:54:48.297Z,1.10
2019-05-29T15:57:18.018Z,0.90
2019-05-29T15:59:47.677Z,1.00
2019-05-29T16:02:18.023Z,1.30
2019-05-29T16:04:47.797Z,1.40
2019-05-29T16:07:18.281Z,1.40
2019-05-29T16:09:48.103Z,1.37
2019-05-29T16:12:19.012Z,1.80
2019-05-29T16:14:48.729Z,1.90
2019-05-29T16:17:19.347Z,1.93
2019-05-29T16:19:49.219Z,2.03
2019-05-29T16:22:19.109Z,2.00
2019-05-29T16:24:48.869Z,2.83
2019-05-29T16:27:18.478Z,1.97
2019-05-29T16:29:48.031Z,2.00
2019-05-29T16:32:17.822Z,2.03
2019-05-29T16:34:47.560Z,1.80
2019-05-29T16:37:17.388Z,1.60
2019-05-29T16:39:47.098Z,2.00
2019-05-29T16:42:17.971Z,1.40
2019-05-29T16:44:47.787Z,1.50
2019-05-29T16:47:18.694Z,1.63
2019-05-29T16:49:49.555Z,1.80
2019-05-29T16:52:21.389Z,1.60
2019-05-29T16:54:51.055Z,1.83
2019-05-29T16:57:21.206Z,1.70
2019-05-29T16:59:51.112Z,1.80
2019-05-29T17:02:21.720Z,1.83
2019-05-29T17:04:51.703Z,1.80
2019-05-29T17:07:22.147Z,1.60
2019-05-29T17:09:51.989Z,1.93
2019-05-29T17:12:22.525Z,2.20
2019-05-29T17:14:52.545Z,1.60
2019-05-29T17:17:22.709Z,1.97
2019-05-29T17:19:52.676Z,2.03
2019-05-29T17:22:22.833Z,2.40
2019-05-29T17:24:52.607Z,2.70
2019-05-29T17:27:22.982Z,2.80
2019-05-29T17:29:52.888Z,2.00
2019-05-29T17:32:23.256Z,2.10
2019-05-29T17:34:56.141Z,2.43
2019-05-29T17:37:26.673Z,2.10
2019-05-29T17:39:58.878Z,2.00
2019-05-29T17:42:29.458Z,2.17
2019-05-29T17:44:59.051Z,2.30
2019-05-29T17:47:28.937Z,2.03
2019-05-29T17:49:58.604Z,2.40
2019-05-29T17:52:29.087Z,2.17
2019-05-29T17:54:59.138Z,2.33
2019-05-29T17:57:29.583Z,1.97
2019-05-29T17:59:59.695Z,2.20
2019-05-29T18:02:29.851Z,2.20
2019-05-29T18:04:59.724Z,1.67
2019-05-29T18:07:29.762Z,1.60
2019-05-29T18:09:59.644Z,2.00
2019-05-29T18:12:33.253Z,2.10
2019-05-29T18:15:03.223Z,1.83
2019-05-29T18:17:33.016Z,2.50
2019-05-29T18:20:03.256Z,2.07
2019-05-29T18:22:33.200Z,2.30
2019-05-29T18:25:07.238Z,2.33
2019-05-29T18:27:37.179Z,2.40
2019-05-29T18:30:08.565Z,2.03
2019-05-29T18:32:38.133Z,2.00
2019-05-29T18:35:09.413Z,1.90
2019-05-29T18:37:39.182Z,1.40
2019-05-29T18:40:12.459Z,2.20
2019-05-29T18:42:41.260Z,2.20
2019-05-29T18:45:20.179Z,1.97
2019-05-29T18:47:43.014Z,1.83
2019-05-29T18:50:14.297Z,1.63
2019-05-29T18:52:44.053Z,1.50
2019-05-29T18:55:15.415Z,1.43
2019-05-29T18:57:45.404Z,1.80
2019-05-29T19:00:15.862Z,2.07
2019-05-29T19:02:45.733Z,2.40
2019-05-29T19:05:16.207Z,1.90
2019-05-29T19:07:45.972Z,1.80
2019-05-29T19:10:17.602Z,2.20
2019-05-29T19:12:47.747Z,3.10
2019-05-29T19:15:19.229Z,3.40
2019-05-29T19:17:49.318Z,2.67
2019-05-29T19:20:19.609Z,2.10
2019-05-29T19:22:49.412Z,2.20
2019-05-29T19:25:19.141Z,3.20
2019-05-29T19:27:48.880Z,2.50
2019-05-29T19:30:19.403Z,2.90
2019-05-29T19:32:49.143Z,2.93
2019-05-29T19:35:19.233Z,2.63
2019-05-29T19:37:48.940Z,3.40
2019-05-29T19:40:19.190Z,2.70
2019-05-29T19:42:48.988Z,2.40
2019-05-29T19:45:19.408Z,2.77
2019-05-29T19:47:49.135Z,3.23
2019-05-29T19:50:19.077Z,2.90
2019-05-29T19:52:48.850Z,2.30
2019-05-29T19:55:18.650Z,2.50
2019-05-29T19:57:55.557Z,2.90
2019-05-29T20:00:20.145Z,3.17
2019-05-29T20:02:49.850Z,3.67
2019-05-29T20:05:19.582Z,2.17
2019-05-29T20:07:49.285Z,2.53
2019-05-29T20:10:19.188Z,3.00
2019-05-29T20:12:48.804Z,2.80
2019-05-29T20:15:18.680Z,2.77
2019-05-29T20:17:48.430Z,2.57
2019-05-29T20:20:18.241Z,3.37
2019-05-29T20:22:47.945Z,3.00
2019-05-29T20:25:17.807Z,3.10
2019-05-29T20:27:47.384Z,2.70
2019-05-29T20:30:18.523Z,3.73
2019-05-29T20:32:49.101Z,2.90
2019-05-29T20:35:19.104Z,3.40
2019-05-29T20:37:48.766Z,3.30
2019-05-29T20:40:18.863Z,3.57
2019-05-29T20:42:48.692Z,3.00
2019-05-29T20:45:18.510Z,3.00
2019-05-29T20:47:48.223Z,4.27
2019-05-29T20:50:18.130Z,4.30
2019-05-29T20:52:47.811Z,3.43
2019-05-29T20:55:17.811Z,3.83
2019-05-29T20:57:47.557Z,3.73
2019-05-29T21:00:18.585Z,3.40
2019-05-29T21:02:48.299Z,3.37
2019-05-29T21:05:18.001Z,3.90
2019-05-29T21:07:47.715Z,4.30
2019-05-29T21:10:17.625Z,3.67
2019-05-29T21:12:47.809Z,4.13
2019-05-29T21:15:17.862Z,3.13
2019-05-29T21:17:47.492Z,3.20
2019-05-29T21:20:17.487Z,3.67
2019-05-29T21:22:47.195Z,3.53
2019-05-29T21:25:19.335Z,3.50
2019-05-29T21:27:49.549Z,3.27
2019-05-29T21:30:25.052Z,3.87
2019-05-29T21:32:54.737Z,3.37
2019-05-29T21:35:24.537Z,3.00
2019-05-29T21:37:54.191Z,4.10
2019-05-29T21:40:29.732Z,4.20
2019-05-29T21:43:03.164Z,4.20
2019-05-29T21:45:33.655Z,3.90
2019-05-29T21:48:03.352Z,3.93
2019-05-29T21:50:39.117Z,5.43
2019-05-29T21:53:08.900Z,4.20
2019-05-29T21:55:41.469Z,4.37
2019-05-29T21:58:11.343Z,4.00
2019-05-29T22:00:52.401Z,3.80
2019-05-29T22:03:22.165Z,4.50
2019-05-29T22:05:51.950Z,4.10
2019-05-29T22:08:21.624Z,4.17
2019-05-29T22:10:51.510Z,4.80
2019-05-29T22:13:21.386Z,4.00
2019-05-29T22:15:51.104Z,3.70
2019-05-29T22:18:20.803Z,4.30
2019-05-29T22:20:51.039Z,3.40
2019-05-29T22:23:20.948Z,4.90
2019-05-29T22:25:51.147Z,3.63
2019-05-29T22:28:21.098Z,3.50
2019-05-29T22:30:51.297Z,3.30
2019-05-29T22:33:21.093Z,3.40
2019-05-29T22:35:52.671Z,3.70
2019-05-29T22:38:22.051Z,3.70
2019-05-29T22:40:52.181Z,3.37
2019-05-29T22:43:23.475Z,2.90
2019-05-29T22:45:53.630Z,2.90
2019-05-29T22:48:23.368Z,2.97
2019-05-29T22:50:53.846Z,3.60
2019-05-29T22:53:23.606Z,3.10
2019-05-29T22:55:53.719Z,3.20
2019-05-29T22:58:23.589Z,3.67
2019-05-29T23:00:56.406Z,3.03
2019-05-29T23:03:26.047Z,3.03
2019-05-29T23:05:56.111Z,3.00
2019-05-29T23:08:25.983Z,3.20
2019-05-29T23:10:56.198Z,3.37
2019-05-29T23:13:25.872Z,2.97
2019-05-29T23:15:56.638Z,3.00
2019-05-29T23:18:26.231Z,3.73
2019-05-29T23:20:56.364Z,3.13
2019-05-29T23:23:26.129Z,3.03
2019-05-29T23:25:56.509Z,3.17
2019-05-29T23:28:26.187Z,3.80
2019-05-29T23:30:56.698Z,3.70
2019-05-29T23:33:26.401Z,4.07
2019-05-29T23:35:56.968Z,3.73
2019-05-29T23:38:26.757Z,4.83
2019-05-29T23:40:57.448Z,3.20
2019-05-29T23:43:27.172Z,3.43
2019-05-29T23:45:57.411Z,3.67
2019-05-29T23:48:27.116Z,4.20
2019-05-29T23:50:57.530Z,3.73
2019-05-29T23:53:27.384Z,4.30
2019-05-29T23:55:57.654Z,3.60
2019-05-29T23:58:27.496Z,4.23
